Aeroporto :
LOGIN :

Iscrizione | Disclaimer

   EN    FR    IT 

 










Sommario :    VFR   VFR Marginale   IFR   IFR Intensivo   IFR Molto Intensivo
Visibilità : 
Base nubi : 
>= 8 km
>= 3000ft
5 / 8 km
1000 / 3000 ft
1500m / 5 km
500 / 1000 ft
800 / 1500m
200 / 500 ft
< 800m
< 200 ft
Simboli :   Temporali  Nebbia  Neve Forte  Precipitazioni Forti  Vento > 20 kt
SIGMETs :   Varie  Temporali  Ghiacco  Turbolenza  Onda orograficha  Ceneri Vulcaniche







- Altitudine del aeroporto : 1020 ft
- Codice IATA : ILZ


LZZI - Žilina

ULTIMO METAR :
  • 190300Z VRB01KT 9999 FEW046CB SCT050 16/15 Q1015

METARs OBSOLETI :
  • 190230Z 11003KT 9999 FEW048 16/15 Q1015
  • 190200Z VRB02KT 9999 FEW050 16/14 Q1015
  • 190130Z 15003KT CAVOK 17/15 Q1015
  • 190100Z 14002KT CAVOK 17/15 Q1015
  • 190030Z 05001KT CAVOK 17/15 Q1016

TAF TAF LZZI
Valido dal 19 a 03 ore il 19 a 12 ore UTC


190200Z 1903/1912 VRB02KT CAVOK
BECMG 1907/1909 9999 SCT035 BKN065
PROB40
TEMPO 1909/1912 VRB15KT 4000 TSRA BKN025 SCT035CB
Nessun NOTAM noto per questo aeroporto.



MetMap, La meteo Aeronautica in un colpo d'occhio ! - Copyright ORBIFLY Dicembre 2007 - Disclaimer

ORBIFLY MET'MAP TEAM :

Programmazione e sviluppo : Alexandra Zaïnal
Concezione e sviluppo : Baudouin d'Aumeries
Co-Programmazione e sviluppo : Marc-Olivier Méhu
Supporto tecnico e logistico : Manuel Goepfert
Aiuto per la traduzione : Arnaldo La Scala

Contatto : metmap@orbifly.com




FONTI E CREDITI :

   NOAA